createdAt,value
2022-10-13T00:01:17.013Z,12.27
2022-10-13T00:03:48.649Z,11.23
2022-10-13T00:06:21.702Z,11.07
2022-10-13T00:08:50.126Z,11.73
2022-10-13T00:11:20.658Z,11.43
2022-10-13T00:13:49.377Z,11.30
2022-10-13T00:16:21.935Z,11.00
2022-10-13T00:18:50.616Z,11.13
2022-10-13T00:21:21.224Z,11.73
2022-10-13T00:23:49.664Z,10.87
2022-10-13T00:26:18.040Z,11.33
2022-10-13T00:28:51.213Z,11.33
2022-10-13T00:31:22.689Z,11.00
2022-10-13T00:33:50.332Z,11.20
2022-10-13T00:36:22.929Z,10.43
2022-10-13T00:38:51.881Z,11.60
2022-10-13T00:41:21.157Z,11.17
2022-10-13T00:44:02.758Z,11.90
2022-10-13T00:46:33.977Z,12.30
2022-10-13T00:49:09.589Z,11.90
2022-10-13T00:51:43.433Z,11.33
2022-10-13T00:54:16.849Z,11.73
2022-10-13T00:56:47.094Z,10.83
2022-10-13T00:59:23.395Z,11.67
2022-10-13T01:01:53.198Z,12.97
2022-10-13T01:04:23.716Z,12.47
2022-10-13T01:06:52.467Z,11.73
2022-10-13T01:09:20.083Z,12.77
2022-10-13T01:12:11.689Z,12.40
2022-10-13T01:15:10.483Z,12.43
2022-10-13T01:18:02.220Z,12.50
2022-10-13T01:20:29.763Z,12.50
2022-10-13T01:23:28.297Z,12.20
2022-10-13T01:26:18.236Z,13.00
2022-10-13T01:29:10.524Z,11.83
2022-10-13T01:31:46.339Z,12.43
2022-10-13T01:34:26.176Z,12.30
2022-10-13T01:37:14.766Z,12.77
2022-10-13T01:40:14.635Z,14.90
2022-10-13T01:43:23.436Z,12.93
2022-10-13T01:46:06.215Z,13.63
2022-10-13T01:48:37.354Z,12.13
2022-10-13T01:51:07.182Z,13.00
2022-10-13T01:53:35.740Z,12.87
2022-10-13T01:56:03.337Z,13.73
2022-10-13T01:58:34.661Z,11.90
2022-10-13T02:01:37.492Z,11.73
2022-10-13T02:04:42.245Z,12.27
2022-10-13T02:07:48.860Z,11.10
2022-10-13T02:10:36.647Z,12.00
2022-10-13T02:13:07.079Z,13.23
2022-10-13T02:15:39.658Z,15.70
2022-10-13T02:18:08.592Z,11.50
2022-10-13T02:20:37.163Z,14.47
2022-10-13T02:23:09.960Z,11.57
2022-10-13T02:25:38.460Z,11.17
2022-10-13T02:28:06.814Z,12.90
2022-10-13T02:30:34.730Z,12.40
2022-10-13T02:33:03.304Z,12.63
2022-10-13T02:35:32.779Z,12.67
2022-10-13T02:38:00.748Z,14.47
2022-10-13T02:40:31.675Z,12.43
2022-10-13T02:42:59.338Z,12.33
2022-10-13T02:45:27.015Z,10.47
2022-10-13T02:47:54.810Z,10.40
2022-10-13T02:50:22.407Z,10.67
2022-10-13T02:52:50.191Z,9.50
2022-10-13T02:55:20.586Z,9.57
2022-10-13T02:57:48.154Z,10.10
2022-10-13T03:00:16.597Z,15.10
2022-10-13T03:02:44.382Z,13.27
2022-10-13T03:05:11.986Z,10.63
2022-10-13T03:07:39.584Z,9.90
2022-10-13T03:10:10.026Z,10.90
2022-10-13T03:12:37.590Z,10.50
2022-10-13T03:15:06.073Z,10.33
2022-10-13T03:17:33.779Z,11.27
2022-10-13T03:20:01.352Z,9.13
2022-10-13T03:22:34.433Z,9.03
2022-10-13T03:25:05.164Z,8.97
2022-10-13T03:27:32.883Z,9.00
2022-10-13T03:30:01.741Z,9.37
2022-10-13T03:32:32.376Z,9.07
2022-10-13T03:35:00.247Z,9.33
2022-10-13T03:37:30.750Z,9.10
2022-10-13T03:39:58.319Z,9.33
2022-10-13T03:42:25.892Z,9.30
2022-10-13T03:44:56.351Z,9.20
2022-10-13T03:47:24.304Z,18.73
2022-10-13T03:49:54.743Z,18.53
2022-10-13T03:52:23.020Z,11.00
2022-10-13T03:54:50.760Z,10.07
2022-10-13T03:57:18.311Z,10.13
2022-10-13T03:59:45.932Z,9.63
2022-10-13T04:02:13.670Z,10.47
2022-10-13T04:04:41.260Z,31.43
2022-10-13T04:07:08.985Z,24.70
2022-10-13T04:09:36.648Z,19.90
2022-10-13T04:12:04.432Z,15.57
2022-10-13T04:14:32.020Z,13.50
2022-10-13T04:17:00.152Z,11.00
2022-10-13T04:19:27.846Z,10.90
2022-10-13T04:21:55.419Z,10.80
2022-10-13T04:24:23.030Z,11.43
2022-10-13T04:26:50.654Z,10.73
2022-10-13T04:29:21.228Z,12.07
2022-10-13T04:31:48.833Z,11.33
2022-10-13T04:34:16.372Z,10.00
2022-10-13T04:36:46.681Z,11.60
2022-10-13T04:39:14.821Z,11.53
2022-10-13T04:41:42.378Z,10.13
2022-10-13T04:44:12.917Z,10.53
2022-10-13T04:46:42.966Z,10.37
2022-10-13T04:49:10.552Z,10.80
2022-10-13T04:51:38.236Z,10.30
2022-10-13T04:54:06.141Z,10.33
2022-10-13T04:56:33.917Z,10.47
2022-10-13T04:59:02.553Z,10.33
2022-10-13T05:01:30.120Z,9.87
2022-10-13T05:04:01.132Z,9.40
2022-10-13T05:06:35.067Z,8.53
2022-10-13T05:09:03.922Z,9.70
2022-10-13T05:11:32.211Z,9.80
2022-10-13T05:14:01.529Z,8.77
2022-10-13T05:16:30.891Z,8.57
2022-10-13T05:18:58.623Z,9.50
2022-10-13T05:21:28.520Z,10.27
2022-10-13T05:23:57.632Z,9.27
2022-10-13T05:26:28.961Z,14.17
2022-10-13T05:29:01.110Z,12.73
2022-10-13T05:31:30.608Z,10.60
2022-10-13T05:33:58.829Z,10.77
2022-10-13T05:36:32.156Z,14.33
2022-10-13T05:39:03.733Z,12.47
2022-10-13T05:41:31.918Z,12.57
2022-10-13T05:44:03.654Z,13.50
2022-10-13T05:46:35.954Z,10.20
2022-10-13T05:49:03.957Z,9.53
2022-10-13T05:51:36.749Z,9.23
2022-10-13T05:54:10.417Z,10.20
2022-10-13T05:57:07.502Z,9.77
2022-10-13T05:59:40.040Z,10.33
2022-10-13T06:02:24.079Z,10.33
2022-10-13T06:04:59.218Z,12.30
2022-10-13T06:07:48.814Z,9.57
2022-10-13T06:10:16.642Z,9.27
2022-10-13T06:12:44.427Z,9.17
2022-10-13T06:15:12.247Z,9.27
2022-10-13T06:17:39.974Z,10.20
2022-10-13T06:20:09.158Z,9.47
2022-10-13T06:22:37.912Z,9.77
2022-10-13T06:25:07.165Z,10.07
2022-10-13T06:27:34.843Z,9.70
2022-10-13T06:30:03.300Z,10.17
2022-10-13T06:32:31.343Z,9.60
2022-10-13T06:34:59.352Z,9.87
2022-10-13T06:37:27.651Z,9.57
2022-10-13T06:39:55.337Z,10.27
2022-10-13T06:42:23.270Z,9.90
2022-10-13T06:44:51.089Z,10.27
2022-10-13T06:47:24.705Z,10.23
2022-10-13T06:49:59.928Z,9.80
2022-10-13T06:52:27.540Z,10.07
2022-10-13T06:54:55.396Z,10.63
2022-10-13T06:57:23.586Z,9.60
2022-10-13T06:59:52.994Z,9.60
2022-10-13T07:02:20.853Z,9.70
2022-10-13T07:04:49.070Z,9.33
2022-10-13T07:07:16.618Z,11.50
2022-10-13T07:09:44.260Z,9.77
2022-10-13T07:12:13.806Z,9.90
2022-10-13T07:14:43.805Z,9.80
2022-10-13T07:17:11.646Z,10.17
2022-10-13T07:19:39.407Z,9.30
2022-10-13T07:22:06.988Z,10.07
2022-10-13T07:24:34.734Z,8.77
2022-10-13T07:27:07.493Z,9.10
2022-10-13T07:29:35.621Z,9.77
2022-10-13T07:32:03.282Z,9.07
2022-10-13T07:34:30.871Z,8.77
2022-10-13T07:36:58.735Z,9.27
2022-10-13T07:39:26.294Z,9.80
2022-10-13T07:42:11.855Z,9.63
2022-10-13T07:44:42.083Z,9.70
2022-10-13T07:47:09.772Z,9.17
2022-10-13T07:49:37.401Z,8.83
2022-10-13T07:52:05.097Z,9.40
2022-10-13T07:54:32.784Z,9.60
2022-10-13T07:57:00.375Z,9.27
2022-10-13T07:59:28.009Z,9.70
2022-10-13T08:01:56.057Z,10.13
2022-10-13T08:04:26.556Z,8.90
2022-10-13T08:06:54.186Z,8.83
2022-10-13T08:09:21.811Z,9.50
2022-10-13T08:11:49.452Z,9.80
2022-10-13T08:14:17.249Z,9.40
2022-10-13T08:16:48.611Z,9.40
2022-10-13T08:19:20.880Z,9.23
2022-10-13T08:22:07.837Z,8.93
2022-10-13T08:24:37.164Z,9.63
2022-10-13T08:27:04.759Z,8.87
2022-10-13T08:29:32.419Z,9.50
2022-10-13T08:32:00.160Z,9.33
2022-10-13T08:34:27.851Z,8.83
2022-10-13T08:36:58.536Z,8.70
2022-10-13T08:39:26.166Z,9.10
2022-10-13T08:41:56.270Z,8.43
2022-10-13T08:47:50.289Z,8.60
2022-10-13T08:50:25.311Z,8.07
2022-10-13T08:52:57.231Z,8.20
2022-10-13T08:55:29.863Z,8.07
2022-10-13T08:57:57.933Z,8.47
2022-10-13T09:00:25.549Z,8.17
2022-10-13T09:02:53.129Z,8.50
2022-10-13T09:05:38.054Z,8.53
2022-10-13T09:08:17.488Z,8.50
2022-10-13T09:10:51.958Z,9.30
2022-10-13T09:13:20.143Z,8.73
2022-10-13T09:15:52.295Z,8.80
2022-10-13T09:18:31.647Z,8.77
2022-10-13T09:21:18.340Z,9.10
2022-10-13T09:23:46.065Z,9.30
2022-10-13T09:26:20.417Z,8.83
2022-10-13T09:28:48.333Z,8.47
2022-10-13T09:31:25.272Z,9.33
2022-10-13T09:34:12.167Z,9.80
2022-10-13T09:36:54.601Z,9.90
2022-10-13T09:39:25.146Z,9.53
2022-10-13T09:42:08.524Z,9.40
2022-10-13T09:44:39.099Z,9.43
2022-10-13T09:47:17.213Z,9.43
2022-10-13T09:49:45.319Z,9.53
2022-10-13T09:52:12.942Z,9.37
2022-10-13T09:54:47.724Z,8.30
2022-10-13T09:57:25.163Z,8.93
2022-10-13T10:02:45.538Z,8.50
2022-10-13T10:05:15.871Z,8.13
2022-10-13T10:07:43.764Z,8.67
2022-10-13T10:10:34.639Z,9.23
2022-10-13T10:13:03.070Z,8.33
2022-10-13T10:15:44.880Z,8.90
2022-10-13T10:18:23.107Z,8.63
2022-10-13T10:20:55.069Z,9.13
2022-10-13T10:23:47.884Z,9.80
2022-10-13T10:26:33.497Z,9.90
2022-10-13T10:29:19.980Z,9.90
2022-10-13T10:31:56.098Z,10.30
2022-10-13T10:34:27.101Z,10.00
2022-10-13T10:37:04.151Z,10.13
2022-10-13T10:39:59.780Z,9.80
2022-10-13T10:42:52.151Z,10.43
2022-10-13T10:45:28.516Z,10.70
2022-10-13T10:48:23.030Z,10.43
2022-10-13T10:50:54.398Z,11.20
2022-10-13T10:53:39.291Z,10.60
2022-10-13T10:56:17.779Z,10.13
2022-10-13T10:58:48.334Z,11.20
2022-10-13T11:01:36.925Z,10.75
2022-10-13T11:04:26.274Z,11.53
2022-10-13T11:06:53.901Z,11.25
2022-10-13T11:09:43.177Z,11.40
2022-10-13T11:12:23.070Z,12.13
2022-10-13T11:15:11.773Z,12.00
2022-10-13T11:17:40.950Z,12.20
2022-10-13T11:20:17.964Z,12.10
2022-10-13T11:23:00.573Z,13.00
2022-10-13T11:25:35.780Z,11.20
2022-10-13T11:28:42.178Z,11.40
2022-10-13T11:31:12.776Z,12.05
2022-10-13T11:33:40.356Z,11.63
2022-10-13T11:36:47.284Z,11.23
2022-10-13T11:42:16.950Z,11.00
2022-10-13T11:44:45.636Z,11.63
2022-10-13T11:47:39.223Z,11.93
2022-10-13T11:50:26.949Z,12.15
2022-10-13T11:53:17.410Z,11.50
2022-10-13T11:55:53.559Z,10.67
2022-10-13T11:58:26.214Z,11.77
2022-10-13T12:01:00.472Z,11.27
2022-10-13T12:03:28.097Z,10.70
2022-10-13T12:06:34.018Z,11.20
2022-10-13T12:09:05.863Z,10.05
2022-10-13T12:11:36.890Z,11.13
2022-10-13T12:14:08.281Z,11.40
2022-10-13T12:16:40.103Z,11.70
2022-10-13T12:19:21.380Z,11.60
2022-10-13T12:22:00.318Z,10.53
2022-10-13T12:24:30.287Z,11.93
2022-10-13T12:26:58.672Z,12.23
2022-10-13T12:29:31.051Z,11.73
2022-10-13T12:32:01.147Z,11.13
2022-10-13T12:34:35.924Z,11.83
2022-10-13T12:37:06.720Z,11.30
2022-10-13T12:39:36.059Z,11.97
2022-10-13T12:42:08.296Z,11.67
2022-10-13T12:44:36.181Z,11.03
2022-10-13T12:47:04.068Z,11.63
2022-10-13T12:49:36.459Z,10.47
2022-10-13T12:52:09.497Z,10.97
2022-10-13T12:54:40.159Z,10.60
2022-10-13T12:57:18.662Z,10.07
2022-10-13T12:59:46.775Z,11.07
2022-10-13T13:02:25.043Z,9.73
2022-10-13T13:04:52.890Z,10.52
2022-10-13T13:07:33.856Z,10.55
2022-10-13T13:10:18.034Z,10.65
2022-10-13T13:12:47.405Z,9.95
2022-10-13T13:15:32.728Z,10.48
2022-10-13T13:18:36.692Z,10.10
2022-10-13T13:21:11.093Z,9.95
2022-10-13T13:23:38.938Z,10.25
2022-10-13T13:26:13.614Z,10.65
2022-10-13T13:28:54.017Z,9.82
2022-10-13T13:31:24.303Z,9.80
2022-10-13T13:33:52.249Z,9.65
2022-10-13T13:36:22.573Z,9.55
2022-10-13T13:38:50.730Z,9.50
2022-10-13T13:41:18.457Z,8.98
2022-10-13T13:43:46.364Z,10.02
2022-10-13T13:46:23.232Z,9.98
2022-10-13T13:48:51.357Z,10.02
2022-10-13T13:51:19.644Z,9.85
2022-10-13T13:53:47.351Z,10.23
2022-10-13T13:56:17.047Z,9.20
2022-10-13T13:58:45.141Z,10.15
2022-10-13T14:01:14.076Z,10.18
2022-10-13T14:03:41.987Z,9.27
2022-10-13T14:06:15.862Z,9.80
2022-10-13T14:08:43.595Z,9.45
2022-10-13T14:11:11.598Z,10.32
2022-10-13T14:13:39.145Z,9.57
2022-10-13T14:16:07.066Z,9.98
2022-10-13T14:18:36.829Z,10.65
2022-10-13T14:21:08.357Z,10.30
2022-10-13T14:23:37.818Z,9.63
2022-10-13T14:26:07.596Z,10.38
2022-10-13T14:28:35.224Z,10.63
2022-10-13T14:31:06.467Z,10.57
2022-10-13T14:33:34.496Z,9.87
2022-10-13T14:36:06.759Z,9.87
2022-10-13T14:38:34.775Z,10.05
2022-10-13T14:41:04.249Z,10.70
2022-10-13T14:43:33.381Z,10.37
2022-10-13T14:46:02.873Z,10.57
2022-10-13T14:48:34.468Z,10.70
2022-10-13T14:51:09.409Z,10.27
2022-10-13T14:53:41.999Z,10.80
2022-10-13T14:56:18.946Z,10.10
2022-10-13T14:58:48.405Z,11.25
2022-10-13T15:01:17.054Z,11.13
2022-10-13T15:03:45.571Z,10.47
2022-10-13T15:06:18.975Z,11.07
2022-10-13T15:08:47.354Z,11.80
2022-10-13T15:11:16.730Z,11.37
2022-10-13T15:13:44.702Z,11.03
2022-10-13T15:16:21.037Z,10.83
2022-10-13T15:18:49.264Z,11.03
2022-10-13T15:21:18.139Z,10.40
2022-10-13T15:23:46.194Z,11.00
2022-10-13T15:26:15.765Z,11.47
2022-10-13T15:28:46.819Z,11.83
2022-10-13T15:31:15.761Z,11.53
2022-10-13T15:33:46.624Z,11.53
2022-10-13T15:36:14.643Z,12.47
2022-10-13T15:38:42.199Z,11.97
2022-10-13T15:41:10.884Z,11.50
2022-10-13T15:43:39.623Z,12.97
2022-10-13T15:46:21.365Z,12.53
2022-10-13T15:48:53.307Z,11.93
2022-10-13T15:51:24.042Z,12.17
2022-10-13T15:53:51.696Z,13.17
2022-10-13T15:56:20.553Z,13.10
2022-10-13T15:58:48.154Z,12.67
2022-10-13T16:01:15.991Z,13.20
2022-10-13T16:03:43.715Z,13.37
2022-10-13T16:06:12.772Z,13.17
2022-10-13T16:08:44.118Z,13.30
2022-10-13T16:11:14.859Z,19.43
2022-10-13T16:13:49.882Z,16.87
2022-10-13T16:16:18.337Z,17.57
2022-10-13T16:18:46.209Z,16.20
2022-10-13T16:21:18.468Z,14.37
2022-10-13T16:23:47.861Z,15.13
2022-10-13T16:26:17.556Z,15.07
2022-10-13T16:28:46.085Z,15.53
2022-10-13T16:31:16.433Z,16.00
2022-10-13T16:33:45.607Z,15.30
2022-10-13T16:36:18.033Z,14.47
2022-10-13T16:38:46.880Z,43.20
2022-10-13T16:41:17.390Z,16.23
2022-10-13T16:43:46.699Z,15.13
2022-10-13T16:46:17.374Z,14.80
2022-10-13T16:48:46.089Z,15.53
2022-10-13T16:51:19.489Z,15.63
2022-10-13T16:53:52.561Z,15.87
2022-10-13T16:56:24.103Z,14.20
2022-10-13T16:58:58.165Z,15.10
2022-10-13T17:01:26.439Z,17.00
2022-10-13T17:03:56.586Z,16.57
2022-10-13T17:06:26.303Z,14.90
2022-10-13T17:08:54.010Z,16.93
2022-10-13T17:11:27.265Z,16.50
2022-10-13T17:13:56.757Z,15.03
2022-10-13T17:16:24.981Z,14.60
2022-10-13T17:18:53.018Z,15.10
2022-10-13T17:21:23.276Z,15.57
2022-10-13T17:23:51.171Z,13.90
2022-10-13T17:26:19.707Z,14.93
2022-10-13T17:28:47.677Z,13.83
2022-10-13T17:31:18.983Z,14.83
2022-10-13T17:33:47.275Z,13.60
2022-10-13T17:36:24.702Z,14.03
2022-10-13T17:38:53.997Z,15.03
2022-10-13T17:41:23.794Z,15.57
2022-10-13T17:43:52.374Z,15.50
2022-10-13T17:46:36.379Z,16.27
2022-10-13T17:49:07.353Z,14.87
2022-10-13T17:51:35.041Z,14.17
2022-10-13T17:54:02.930Z,13.53
2022-10-13T17:56:30.662Z,14.70
2022-10-13T17:59:00.728Z,15.77
2022-10-13T18:01:35.687Z,16.40
2022-10-13T18:04:06.917Z,17.47
2022-10-13T18:06:39.819Z,16.47
2022-10-13T18:09:10.278Z,16.80
2022-10-13T18:11:38.312Z,15.33
2022-10-13T18:14:06.779Z,15.83
2022-10-13T18:16:35.785Z,16.10
2022-10-13T18:19:04.813Z,16.83
2022-10-13T18:21:32.546Z,17.20
2022-10-13T18:24:01.813Z,46.13
2022-10-13T18:26:37.565Z,22.30
2022-10-13T18:29:06.980Z,18.67
2022-10-13T18:31:36.645Z,18.93
2022-10-13T18:34:10.603Z,18.40
2022-10-13T18:36:54.817Z,18.87
2022-10-13T18:39:25.646Z,20.13
2022-10-13T18:41:55.392Z,19.10
2022-10-13T18:44:24.091Z,18.93
2022-10-13T18:46:53.723Z,21.83
2022-10-13T18:49:23.840Z,20.23
2022-10-13T18:51:54.449Z,19.70
2022-10-13T18:54:22.083Z,20.20
2022-10-13T18:56:49.879Z,19.50
2022-10-13T18:59:17.729Z,19.87
2022-10-13T19:01:47.839Z,19.47
2022-10-13T19:04:16.859Z,20.77
2022-10-13T19:06:46.309Z,19.73
2022-10-13T19:09:15.838Z,19.77
2022-10-13T19:11:43.487Z,20.40
2022-10-13T19:14:13.083Z,20.17
2022-10-13T19:16:42.607Z,21.23
2022-10-13T19:19:10.560Z,20.47
2022-10-13T19:21:39.124Z,20.60
2022-10-13T19:24:08.077Z,21.10
2022-10-13T19:26:36.531Z,36.63
2022-10-13T19:29:13.163Z,24.13
2022-10-13T19:31:42.320Z,18.83
2022-10-13T19:34:11.709Z,29.40
2022-10-13T19:36:42.535Z,20.20
2022-10-13T19:39:16.698Z,19.33
2022-10-13T19:41:48.211Z,19.17
2022-10-13T19:44:17.341Z,20.27
2022-10-13T19:46:46.964Z,20.73
2022-10-13T19:49:16.812Z,21.00
2022-10-13T19:51:45.284Z,24.87
2022-10-13T19:54:13.665Z,21.10
2022-10-13T19:56:41.264Z,19.27
2022-10-13T19:59:08.896Z,20.13
2022-10-13T20:01:40.961Z,21.50
2022-10-13T20:04:08.648Z,19.20
2022-10-13T20:06:36.926Z,17.93
2022-10-13T20:09:05.348Z,18.67
2022-10-13T20:11:33.014Z,20.13
2022-10-13T20:14:00.857Z,19.97
2022-10-13T20:16:28.969Z,19.03
2022-10-13T20:18:58.987Z,20.17
2022-10-13T20:21:27.817Z,19.80
2022-10-13T20:23:55.919Z,19.00
2022-10-13T20:26:24.171Z,19.20
2022-10-13T20:28:53.336Z,19.83
2022-10-13T20:31:22.159Z,18.20
2022-10-13T20:33:54.906Z,18.33
2022-10-13T20:36:23.971Z,21.77
2022-10-13T20:38:51.633Z,22.33
2022-10-13T20:41:27.469Z,21.03
2022-10-13T20:43:57.178Z,19.30
2022-10-13T20:46:25.548Z,18.90
2022-10-13T20:51:42.640Z,17.87
2022-10-13T20:54:12.626Z,18.37
2022-10-13T20:56:40.420Z,17.70
2022-10-13T20:59:10.656Z,21.63
2022-10-13T21:01:39.006Z,28.97
2022-10-13T21:04:07.149Z,50.10
2022-10-13T21:06:35.700Z,25.87
2022-10-13T21:09:04.982Z,18.37
2022-10-13T21:11:33.110Z,20.27
2022-10-13T21:14:06.148Z,21.13
2022-10-13T21:16:34.352Z,21.57
2022-10-13T21:19:02.283Z,22.97
2022-10-13T21:21:32.018Z,21.23
2022-10-13T21:24:03.935Z,21.70
2022-10-13T21:26:33.223Z,21.07
2022-10-13T21:29:02.002Z,22.63
2022-10-13T21:31:30.107Z,21.10
2022-10-13T21:33:57.937Z,21.87
2022-10-13T21:36:28.994Z,20.47
2022-10-13T21:38:59.893Z,21.53
2022-10-13T21:41:33.570Z,21.17
2022-10-13T21:44:02.149Z,20.53
2022-10-13T21:46:31.907Z,20.40
2022-10-13T21:49:02.070Z,21.50
2022-10-13T21:51:40.161Z,20.93
2022-10-13T21:54:11.511Z,20.57
2022-10-13T21:56:40.419Z,21.30
2022-10-13T21:59:08.793Z,20.00
2022-10-13T22:01:36.367Z,21.00
2022-10-13T22:04:04.417Z,19.50
2022-10-13T22:06:33.785Z,19.07
2022-10-13T22:09:06.339Z,19.63
2022-10-13T22:11:36.358Z,18.60
2022-10-13T22:14:04.916Z,18.87
2022-10-13T22:16:37.844Z,18.40
2022-10-13T22:19:06.377Z,18.43
2022-10-13T22:21:36.344Z,17.03
2022-10-13T22:24:06.210Z,16.97
2022-10-13T22:26:37.136Z,16.73
2022-10-13T22:29:06.696Z,15.20
2022-10-13T22:31:34.846Z,13.90
2022-10-13T22:34:02.875Z,15.13
2022-10-13T22:36:31.563Z,14.40
2022-10-13T22:39:04.016Z,14.33
2022-10-13T22:41:33.257Z,13.83
2022-10-13T22:44:02.667Z,12.80
2022-10-13T22:46:33.635Z,13.33
2022-10-13T22:49:02.220Z,12.57
2022-10-13T22:51:31.699Z,12.93
2022-10-13T22:53:59.815Z,12.23
2022-10-13T22:56:29.825Z,13.07
2022-10-13T22:59:08.485Z,12.63
2022-10-13T23:01:36.421Z,13.00
2022-10-13T23:04:04.390Z,13.47
2022-10-13T23:06:33.907Z,13.03
2022-10-13T23:09:04.071Z,13.03
2022-10-13T23:11:31.917Z,13.53
2022-10-13T23:14:00.808Z,13.83
2022-10-13T23:16:28.614Z,14.47
2022-10-13T23:18:56.537Z,13.23
2022-10-13T23:21:27.052Z,15.47
2022-10-13T23:24:03.614Z,17.97
2022-10-13T23:26:33.114Z,16.90
2022-10-13T23:29:01.146Z,29.27
2022-10-13T23:31:29.238Z,28.40
2022-10-13T23:33:58.538Z,21.57
2022-10-13T23:36:30.192Z,21.13
2022-10-13T23:39:08.000Z,21.23
2022-10-13T23:41:35.639Z,21.20
2022-10-13T23:44:05.905Z,20.03
2022-10-13T23:46:33.530Z,20.73
2022-10-13T23:49:02.157Z,20.60
2022-10-13T23:51:29.805Z,23.50
2022-10-13T23:53:58.207Z,19.70
2022-10-13T23:56:28.445Z,20.17
2022-10-13T23:58:56.109Z,19.97
